sensor_id;sensor_type;location;lat;lon;timestamp;P1;durP1;ratioP1;P2;durP2;ratioP2
73760;SDS011;69240;43.530;-5.646;2023-04-28T00:00:29;42.30;;;19.80;;
73760;SDS011;69240;43.530;-5.646;2023-04-28T00:02:54;33.35;;;17.25;;
73760;SDS011;69240;43.530;-5.646;2023-04-28T00:05:20;45.03;;;21.35;;
73760;SDS011;69240;43.530;-5.646;2023-04-28T00:07:49;59.95;;;24.30;;
73760;SDS011;69240;43.530;-5.646;2023-04-28T00:10:14;49.30;;;23.30;;
73760;SDS011;69240;43.530;-5.646;2023-04-28T00:12:40;51.88;;;24.70;;
73760;SDS011;69240;43.530;-5.646;2023-04-28T00:15:06;50.53;;;24.38;;
73760;SDS011;69240;43.530;-5.646;2023-04-28T00:17:32;54.55;;;22.95;;
73760;SDS011;69240;43.530;-5.646;2023-04-28T00:19:58;70.35;;;28.65;;
73760;SDS011;69240;43.530;-5.646;2023-04-28T00:22:23;52.45;;;24.42;;
73760;SDS011;69240;43.530;-5.646;2023-04-28T00:24:49;46.03;;;21.73;;
73760;SDS011;69240;43.530;-5.646;2023-04-28T00:27:14;50.17;;;23.33;;
73760;SDS011;69240;43.530;-5.646;2023-04-28T00:29:40;52.50;;;23.02;;
73760;SDS011;69240;43.530;-5.646;2023-04-28T00:32:05;55.92;;;22.38;;
73760;SDS011;69240;43.530;-5.646;2023-04-28T00:34:31;50.70;;;23.23;;
73760;SDS011;69240;43.530;-5.646;2023-04-28T00:36:57;55.80;;;22.85;;
73760;SDS011;69240;43.530;-5.646;2023-04-28T00:39:23;58.45;;;23.92;;
73760;SDS011;69240;43.530;-5.646;2023-04-28T00:41:50;50.78;;;23.48;;
73760;SDS011;69240;43.530;-5.646;2023-04-28T00:44:16;59.40;;;23.58;;
73760;SDS011;69240;43.530;-5.646;2023-04-28T00:46:42;50.15;;;21.73;;
73760;SDS011;69240;43.530;-5.646;2023-04-28T00:49:08;59.95;;;23.83;;
73760;SDS011;69240;43.530;-5.646;2023-04-28T00:51:34;46.78;;;21.92;;
73760;SDS011;69240;43.530;-5.646;2023-04-28T00:53:59;48.88;;;22.83;;
73760;SDS011;69240;43.530;-5.646;2023-04-28T00:56:25;59.88;;;32.95;;
73760;SDS011;69240;43.530;-5.646;2023-04-28T00:58:55;48.38;;;23.55;;
73760;SDS011;69240;43.530;-5.646;2023-04-28T01:01:21;49.08;;;22.05;;
73760;SDS011;69240;43.530;-5.646;2023-04-28T01:03:47;43.40;;;20.35;;
73760;SDS011;69240;43.530;-5.646;2023-04-28T01:06:13;54.72;;;24.63;;
73760;SDS011;69240;43.530;-5.646;2023-04-28T01:08:39;46.67;;;22.85;;
73760;SDS011;69240;43.530;-5.646;2023-04-28T01:11:06;50.58;;;22.70;;
73760;SDS011;69240;43.530;-5.646;2023-04-28T01:13:38;45.15;;;21.90;;
73760;SDS011;69240;43.530;-5.646;2023-04-28T01:16:05;47.63;;;21.83;;
73760;SDS011;69240;43.530;-5.646;2023-04-28T01:18:31;49.80;;;22.90;;
73760;SDS011;69240;43.530;-5.646;2023-04-28T01:20:58;53.90;;;23.20;;
73760;SDS011;69240;43.530;-5.646;2023-04-28T01:23:24;76.50;;;30.15;;
73760;SDS011;69240;43.530;-5.646;2023-04-28T01:25:50;73.72;;;27.30;;
73760;SDS011;69240;43.530;-5.646;2023-04-28T01:28:16;71.28;;;28.27;;
73760;SDS011;69240;43.530;-5.646;2023-04-28T01:30:41;68.03;;;26.80;;
73760;SDS011;69240;43.530;-5.646;2023-04-28T01:33:07;74.68;;;25.30;;
73760;SDS011;69240;43.530;-5.646;2023-04-28T01:35:32;86.13;;;25.48;;
73760;SDS011;69240;43.530;-5.646;2023-04-28T01:37:58;105.57;;;28.30;;
73760;SDS011;69240;43.530;-5.646;2023-04-28T01:40:23;69.80;;;25.45;;
73760;SDS011;69240;43.530;-5.646;2023-04-28T01:42:49;65.57;;;25.85;;
73760;SDS011;69240;43.530;-5.646;2023-04-28T01:45:15;59.75;;;25.00;;
73760;SDS011;69240;43.530;-5.646;2023-04-28T01:47:40;52.92;;;23.38;;
73760;SDS011;69240;43.530;-5.646;2023-04-28T01:50:06;58.88;;;23.50;;
73760;SDS011;69240;43.530;-5.646;2023-04-28T01:52:32;67.53;;;25.48;;
73760;SDS011;69240;43.530;-5.646;2023-04-28T01:54:57;81.65;;;26.80;;
73760;SDS011;69240;43.530;-5.646;2023-04-28T01:57:23;63.72;;;23.60;;
73760;SDS011;69240;43.530;-5.646;2023-04-28T01:59:50;77.57;;;26.30;;
73760;SDS011;69240;43.530;-5.646;2023-04-28T02:02:15;102.00;;;26.70;;
73760;SDS011;69240;43.530;-5.646;2023-04-28T02:04:41;108.03;;;31.13;;
73760;SDS011;69240;43.530;-5.646;2023-04-28T02:07:06;87.75;;;28.33;;
73760;SDS011;69240;43.530;-5.646;2023-04-28T02:09:32;69.20;;;24.52;;
73760;SDS011;69240;43.530;-5.646;2023-04-28T02:11:58;81.03;;;28.33;;
73760;SDS011;69240;43.530;-5.646;2023-04-28T02:14:29;72.80;;;26.65;;
73760;SDS011;69240;43.530;-5.646;2023-04-28T02:16:57;67.57;;;25.65;;
73760;SDS011;69240;43.530;-5.646;2023-04-28T02:19:23;63.40;;;25.23;;
73760;SDS011;69240;43.530;-5.646;2023-04-28T02:21:49;85.88;;;25.13;;
73760;SDS011;69240;43.530;-5.646;2023-04-28T02:24:15;79.65;;;27.15;;
73760;SDS011;69240;43.530;-5.646;2023-04-28T02:26:40;63.30;;;24.02;;
73760;SDS011;69240;43.530;-5.646;2023-04-28T02:29:06;56.80;;;22.58;;
73760;SDS011;69240;43.530;-5.646;2023-04-28T02:31:32;48.00;;;20.17;;
73760;SDS011;69240;43.530;-5.646;2023-04-28T02:33:57;41.58;;;19.85;;
73760;SDS011;69240;43.530;-5.646;2023-04-28T02:36:23;49.60;;;20.20;;
73760;SDS011;69240;43.530;-5.646;2023-04-28T02:38:48;49.42;;;21.35;;
73760;SDS011;69240;43.530;-5.646;2023-04-28T02:41:14;52.95;;;21.92;;
73760;SDS011;69240;43.530;-5.646;2023-04-28T02:43:40;73.28;;;22.42;;
73760;SDS011;69240;43.530;-5.646;2023-04-28T02:46:06;55.60;;;21.83;;
73760;SDS011;69240;43.530;-5.646;2023-04-28T02:48:32;66.10;;;22.20;;
73760;SDS011;69240;43.530;-5.646;2023-04-28T02:51:01;46.88;;;19.55;;
73760;SDS011;69240;43.530;-5.646;2023-04-28T02:53:27;66.63;;;22.67;;
73760;SDS011;69240;43.530;-5.646;2023-04-28T02:55:53;42.25;;;19.98;;
73760;SDS011;69240;43.530;-5.646;2023-04-28T02:58:18;45.45;;;19.48;;
73760;SDS011;69240;43.530;-5.646;2023-04-28T03:00:44;36.88;;;18.88;;
73760;SDS011;69240;43.530;-5.646;2023-04-28T03:03:10;37.10;;;18.20;;
73760;SDS011;69240;43.530;-5.646;2023-04-28T03:05:36;32.65;;;16.52;;
73760;SDS011;69240;43.530;-5.646;2023-04-28T03:08:01;42.67;;;18.70;;
73760;SDS011;69240;43.530;-5.646;2023-04-28T03:10:27;53.80;;;20.52;;
73760;SDS011;69240;43.530;-5.646;2023-04-28T03:12:52;53.13;;;20.92;;
73760;SDS011;69240;43.530;-5.646;2023-04-28T03:15:18;45.53;;;19.02;;
73760;SDS011;69240;43.530;-5.646;2023-04-28T03:17:43;62.25;;;21.35;;
73760;SDS011;69240;43.530;-5.646;2023-04-28T03:20:09;41.05;;;15.82;;
73760;SDS011;69240;43.530;-5.646;2023-04-28T03:22:35;39.10;;;18.75;;
73760;SDS011;69240;43.530;-5.646;2023-04-28T03:25:01;39.35;;;17.65;;
73760;SDS011;69240;43.530;-5.646;2023-04-28T03:27:27;27.50;;;14.65;;
73760;SDS011;69240;43.530;-5.646;2023-04-28T03:29:53;29.35;;;15.85;;
73760;SDS011;69240;43.530;-5.646;2023-04-28T03:32:18;28.67;;;13.63;;
73760;SDS011;69240;43.530;-5.646;2023-04-28T03:34:44;44.92;;;18.05;;
73760;SDS011;69240;43.530;-5.646;2023-04-28T03:37:10;35.35;;;17.73;;
73760;SDS011;69240;43.530;-5.646;2023-04-28T03:39:36;28.65;;;15.63;;
73760;SDS011;69240;43.530;-5.646;2023-04-28T03:42:01;46.03;;;19.05;;
73760;SDS011;69240;43.530;-5.646;2023-04-28T03:44:27;40.67;;;18.10;;
73760;SDS011;69240;43.530;-5.646;2023-04-28T03:46:52;41.00;;;18.67;;
73760;SDS011;69240;43.530;-5.646;2023-04-28T03:49:18;59.42;;;21.45;;
73760;SDS011;69240;43.530;-5.646;2023-04-28T03:51:43;49.10;;;21.40;;
73760;SDS011;69240;43.530;-5.646;2023-04-28T03:54:09;40.17;;;21.42;;
73760;SDS011;69240;43.530;-5.646;2023-04-28T03:56:34;45.15;;;20.75;;
73760;SDS011;69240;43.530;-5.646;2023-04-28T03:59:00;35.72;;;19.95;;
73760;SDS011;69240;43.530;-5.646;2023-04-28T04:01:26;31.92;;;16.92;;
73760;SDS011;69240;43.530;-5.646;2023-04-28T04:03:51;31.45;;;18.58;;
73760;SDS011;69240;43.530;-5.646;2023-04-28T04:06:17;26.15;;;15.65;;
73760;SDS011;69240;43.530;-5.646;2023-04-28T04:08:42;26.48;;;16.05;;
73760;SDS011;69240;43.530;-5.646;2023-04-28T04:11:08;24.75;;;14.18;;
73760;SDS011;69240;43.530;-5.646;2023-04-28T04:13:33;32.65;;;18.60;;
73760;SDS011;69240;43.530;-5.646;2023-04-28T04:15:59;33.78;;;17.48;;
73760;SDS011;69240;43.530;-5.646;2023-04-28T04:18:25;33.00;;;16.38;;
73760;SDS011;69240;43.530;-5.646;2023-04-28T04:20:51;30.00;;;18.17;;
73760;SDS011;69240;43.530;-5.646;2023-04-28T04:23:19;29.10;;;18.38;;
73760;SDS011;69240;43.530;-5.646;2023-04-28T04:25:45;34.55;;;18.30;;
73760;SDS011;69240;43.530;-5.646;2023-04-28T04:28:11;33.65;;;18.17;;
73760;SDS011;69240;43.530;-5.646;2023-04-28T04:30:36;28.33;;;17.05;;
73760;SDS011;69240;43.530;-5.646;2023-04-28T04:33:02;28.30;;;16.73;;
73760;SDS011;69240;43.530;-5.646;2023-04-28T04:35:27;29.02;;;16.92;;
73760;SDS011;69240;43.530;-5.646;2023-04-28T04:37:53;27.58;;;15.90;;
73760;SDS011;69240;43.530;-5.646;2023-04-28T04:40:19;23.63;;;13.50;;
73760;SDS011;69240;43.530;-5.646;2023-04-28T04:42:44;21.85;;;13.55;;
73760;SDS011;69240;43.530;-5.646;2023-04-28T04:45:10;20.55;;;13.45;;
73760;SDS011;69240;43.530;-5.646;2023-04-28T04:47:36;18.73;;;12.32;;
73760;SDS011;69240;43.530;-5.646;2023-04-28T04:50:01;32.38;;;15.30;;
73760;SDS011;69240;43.530;-5.646;2023-04-28T04:52:27;26.42;;;14.88;;
73760;SDS011;69240;43.530;-5.646;2023-04-28T04:54:53;39.55;;;14.30;;
73760;SDS011;69240;43.530;-5.646;2023-04-28T04:57:20;26.52;;;14.95;;
73760;SDS011;69240;43.530;-5.646;2023-04-28T04:59:46;32.60;;;16.38;;
73760;SDS011;69240;43.530;-5.646;2023-04-28T05:02:11;15.88;;;10.48;;
73760;SDS011;69240;43.530;-5.646;2023-04-28T05:04:37;25.80;;;16.02;;
73760;SDS011;69240;43.530;-5.646;2023-04-28T05:07:02;24.60;;;14.55;;
73760;SDS011;69240;43.530;-5.646;2023-04-28T05:09:28;26.48;;;14.50;;
73760;SDS011;69240;43.530;-5.646;2023-04-28T05:11:54;25.55;;;14.05;;
73760;SDS011;69240;43.530;-5.646;2023-04-28T05:14:20;21.83;;;13.05;;
73760;SDS011;69240;43.530;-5.646;2023-04-28T05:16:46;25.88;;;14.48;;
73760;SDS011;69240;43.530;-5.646;2023-04-28T05:19:11;14.80;;;10.20;;
73760;SDS011;69240;43.530;-5.646;2023-04-28T05:21:37;18.80;;;12.40;;
73760;SDS011;69240;43.530;-5.646;2023-04-28T05:24:02;14.23;;;9.00;;
73760;SDS011;69240;43.530;-5.646;2023-04-28T05:26:28;12.30;;;8.75;;
73760;SDS011;69240;43.530;-5.646;2023-04-28T05:28:54;11.43;;;7.22;;
73760;SDS011;69240;43.530;-5.646;2023-04-28T05:31:19;15.13;;;7.80;;
73760;SDS011;69240;43.530;-5.646;2023-04-28T05:33:45;11.52;;;7.22;;
73760;SDS011;69240;43.530;-5.646;2023-04-28T05:36:11;12.23;;;7.65;;
73760;SDS011;69240;43.530;-5.646;2023-04-28T05:38:37;10.68;;;6.32;;
73760;SDS011;69240;43.530;-5.646;2023-04-28T05:41:02;10.57;;;7.43;;
73760;SDS011;69240;43.530;-5.646;2023-04-28T05:43:28;12.57;;;8.00;;
73760;SDS011;69240;43.530;-5.646;2023-04-28T05:45:53;17.45;;;10.75;;
73760;SDS011;69240;43.530;-5.646;2023-04-28T05:48:19;16.10;;;9.88;;
73760;SDS011;69240;43.530;-5.646;2023-04-28T05:50:45;14.13;;;8.93;;
73760;SDS011;69240;43.530;-5.646;2023-04-28T05:53:10;15.23;;;9.50;;
73760;SDS011;69240;43.530;-5.646;2023-04-28T05:55:36;14.13;;;8.77;;
73760;SDS011;69240;43.530;-5.646;2023-04-28T05:58:02;10.50;;;6.65;;
73760;SDS011;69240;43.530;-5.646;2023-04-28T06:00:28;11.32;;;6.93;;
73760;SDS011;69240;43.530;-5.646;2023-04-28T06:02:54;11.35;;;6.60;;
73760;SDS011;69240;43.530;-5.646;2023-04-28T06:05:20;9.77;;;6.05;;
73760;SDS011;69240;43.530;-5.646;2023-04-28T06:07:46;13.05;;;7.05;;
73760;SDS011;69240;43.530;-5.646;2023-04-28T06:10:11;12.88;;;7.20;;
73760;SDS011;69240;43.530;-5.646;2023-04-28T06:12:37;9.20;;;6.25;;
73760;SDS011;69240;43.530;-5.646;2023-04-28T06:15:03;11.23;;;6.57;;
73760;SDS011;69240;43.530;-5.646;2023-04-28T06:17:29;11.27;;;7.00;;
73760;SDS011;69240;43.530;-5.646;2023-04-28T06:19:56;10.18;;;6.57;;
73760;SDS011;69240;43.530;-5.646;2023-04-28T06:22:26;8.38;;;5.50;;
73760;SDS011;69240;43.530;-5.646;2023-04-28T06:24:51;10.18;;;5.57;;
73760;SDS011;69240;43.530;-5.646;2023-04-28T06:27:17;8.90;;;5.90;;
73760;SDS011;69240;43.530;-5.646;2023-04-28T06:29:43;11.02;;;6.05;;
73760;SDS011;69240;43.530;-5.646;2023-04-28T06:32:09;8.15;;;6.05;;
73760;SDS011;69240;43.530;-5.646;2023-04-28T06:34:35;10.80;;;6.65;;
73760;SDS011;69240;43.530;-5.646;2023-04-28T06:37:01;8.93;;;5.75;;
73760;SDS011;69240;43.530;-5.646;2023-04-28T06:39:27;9.90;;;7.30;;
73760;SDS011;69240;43.530;-5.646;2023-04-28T06:41:52;10.75;;;6.18;;
73760;SDS011;69240;43.530;-5.646;2023-04-28T06:44:18;10.82;;;7.05;;
73760;SDS011;69240;43.530;-5.646;2023-04-28T06:46:43;9.35;;;6.72;;
73760;SDS011;69240;43.530;-5.646;2023-04-28T06:49:09;11.23;;;6.85;;
73760;SDS011;69240;43.530;-5.646;2023-04-28T06:51:35;11.05;;;6.68;;
73760;SDS011;69240;43.530;-5.646;2023-04-28T06:54:00;10.73;;;6.70;;
73760;SDS011;69240;43.530;-5.646;2023-04-28T06:56:26;14.30;;;7.68;;
73760;SDS011;69240;43.530;-5.646;2023-04-28T06:58:53;10.60;;;6.28;;
73760;SDS011;69240;43.530;-5.646;2023-04-28T07:01:19;11.30;;;6.50;;
73760;SDS011;69240;43.530;-5.646;2023-04-28T07:03:45;9.48;;;6.15;;
73760;SDS011;69240;43.530;-5.646;2023-04-28T07:06:29;7.80;;;5.28;;
73760;SDS011;69240;43.530;-5.646;2023-04-28T07:08:56;9.55;;;5.95;;
73760;SDS011;69240;43.530;-5.646;2023-04-28T07:11:22;9.27;;;5.90;;
73760;SDS011;69240;43.530;-5.646;2023-04-28T07:13:47;8.93;;;5.38;;
73760;SDS011;69240;43.530;-5.646;2023-04-28T07:16:15;10.00;;;6.05;;
73760;SDS011;69240;43.530;-5.646;2023-04-28T07:18:42;15.30;;;6.60;;
73760;SDS011;69240;43.530;-5.646;2023-04-28T07:21:07;11.35;;;6.53;;
73760;SDS011;69240;43.530;-5.646;2023-04-28T07:23:33;12.77;;;7.55;;
73760;SDS011;69240;43.530;-5.646;2023-04-28T07:25:58;12.25;;;6.45;;
73760;SDS011;69240;43.530;-5.646;2023-04-28T07:28:24;13.40;;;7.00;;
73760;SDS011;69240;43.530;-5.646;2023-04-28T07:30:50;9.38;;;6.35;;
73760;SDS011;69240;43.530;-5.646;2023-04-28T07:33:16;12.05;;;6.70;;
73760;SDS011;69240;43.530;-5.646;2023-04-28T07:35:43;14.65;;;7.50;;
73760;SDS011;69240;43.530;-5.646;2023-04-28T07:38:08;14.57;;;7.82;;
73760;SDS011;69240;43.530;-5.646;2023-04-28T07:40:34;12.32;;;7.32;;
73760;SDS011;69240;43.530;-5.646;2023-04-28T07:43:00;10.93;;;6.80;;
73760;SDS011;69240;43.530;-5.646;2023-04-28T07:45:25;11.18;;;6.95;;
73760;SDS011;69240;43.530;-5.646;2023-04-28T07:47:51;11.75;;;7.28;;
73760;SDS011;69240;43.530;-5.646;2023-04-28T07:50:16;12.98;;;7.70;;
73760;SDS011;69240;43.530;-5.646;2023-04-28T07:52:42;15.68;;;7.55;;
73760;SDS011;69240;43.530;-5.646;2023-04-28T07:55:08;10.75;;;7.22;;
73760;SDS011;69240;43.530;-5.646;2023-04-28T07:57:34;14.65;;;7.80;;
73760;SDS011;69240;43.530;-5.646;2023-04-28T07:59:59;12.38;;;7.03;;
73760;SDS011;69240;43.530;-5.646;2023-04-28T08:02:25;10.85;;;7.32;;
73760;SDS011;69240;43.530;-5.646;2023-04-28T08:04:51;12.50;;;7.30;;
73760;SDS011;69240;43.530;-5.646;2023-04-28T08:07:17;11.45;;;7.47;;
73760;SDS011;69240;43.530;-5.646;2023-04-28T08:09:42;17.27;;;9.18;;
73760;SDS011;69240;43.530;-5.646;2023-04-28T08:12:11;10.88;;;8.10;;
73760;SDS011;69240;43.530;-5.646;2023-04-28T08:14:37;10.70;;;7.85;;
73760;SDS011;69240;43.530;-5.646;2023-04-28T08:17:03;9.70;;;7.40;;
73760;SDS011;69240;43.530;-5.646;2023-04-28T08:19:28;9.82;;;6.70;;
73760;SDS011;69240;43.530;-5.646;2023-04-28T08:21:54;9.25;;;7.15;;
73760;SDS011;69240;43.530;-5.646;2023-04-28T08:24:19;10.90;;;7.93;;
73760;SDS011;69240;43.530;-5.646;2023-04-28T08:26:45;10.20;;;8.30;;
73760;SDS011;69240;43.530;-5.646;2023-04-28T08:29:10;9.63;;;7.60;;
73760;SDS011;69240;43.530;-5.646;2023-04-28T08:31:39;12.07;;;7.68;;
73760;SDS011;69240;43.530;-5.646;2023-04-28T08:34:05;10.63;;;7.38;;
73760;SDS011;69240;43.530;-5.646;2023-04-28T08:36:30;9.82;;;7.20;;
73760;SDS011;69240;43.530;-5.646;2023-04-28T08:38:57;11.25;;;8.05;;
73760;SDS011;69240;43.530;-5.646;2023-04-28T08:41:25;9.48;;;7.28;;
73760;SDS011;69240;43.530;-5.646;2023-04-28T08:43:52;10.15;;;8.00;;
73760;SDS011;69240;43.530;-5.646;2023-04-28T08:46:18;13.55;;;7.47;;
73760;SDS011;69240;43.530;-5.646;2023-04-28T08:48:45;11.02;;;7.95;;
73760;SDS011;69240;43.530;-5.646;2023-04-28T08:51:14;10.88;;;7.43;;
73760;SDS011;69240;43.530;-5.646;2023-04-28T08:53:43;10.23;;;7.40;;
73760;SDS011;69240;43.530;-5.646;2023-04-28T08:56:09;18.25;;;7.40;;
73760;SDS011;69240;43.530;-5.646;2023-04-28T08:58:38;12.25;;;8.40;;
73760;SDS011;69240;43.530;-5.646;2023-04-28T09:01:04;15.25;;;9.10;;
73760;SDS011;69240;43.530;-5.646;2023-04-28T09:03:30;8.60;;;6.45;;
73760;SDS011;69240;43.530;-5.646;2023-04-28T09:05:57;8.68;;;7.18;;
73760;SDS011;69240;43.530;-5.646;2023-04-28T09:08:22;9.98;;;8.18;;
73760;SDS011;69240;43.530;-5.646;2023-04-28T09:10:59;7.63;;;6.65;;
73760;SDS011;69240;43.530;-5.646;2023-04-28T09:13:31;10.70;;;7.25;;
73760;SDS011;69240;43.530;-5.646;2023-04-28T09:16:01;9.95;;;7.55;;
73760;SDS011;69240;43.530;-5.646;2023-04-28T09:18:27;9.68;;;7.10;;
73760;SDS011;69240;43.530;-5.646;2023-04-28T09:21:06;9.48;;;7.72;;
73760;SDS011;69240;43.530;-5.646;2023-04-28T09:23:33;11.40;;;7.07;;
73760;SDS011;69240;43.530;-5.646;2023-04-28T09:26:03;11.57;;;7.63;;
73760;SDS011;69240;43.530;-5.646;2023-04-28T09:28:32;9.27;;;7.00;;
73760;SDS011;69240;43.530;-5.646;2023-04-28T09:30:59;9.95;;;7.18;;
73760;SDS011;69240;43.530;-5.646;2023-04-28T09:33:25;9.27;;;7.10;;
73760;SDS011;69240;43.530;-5.646;2023-04-28T09:35:51;10.32;;;7.00;;
73760;SDS011;69240;43.530;-5.646;2023-04-28T09:38:17;8.05;;;6.82;;
73760;SDS011;69240;43.530;-5.646;2023-04-28T09:45:59;10.02;;;7.35;;
73760;SDS011;69240;43.530;-5.646;2023-04-28T09:48:29;11.23;;;7.63;;
73760;SDS011;69240;43.530;-5.646;2023-04-28T09:51:01;12.45;;;7.80;;
73760;SDS011;69240;43.530;-5.646;2023-04-28T09:53:28;9.43;;;7.35;;
73760;SDS011;69240;43.530;-5.646;2023-04-28T09:55:55;10.77;;;7.75;;
73760;SDS011;69240;43.530;-5.646;2023-04-28T09:58:23;9.93;;;7.13;;
73760;SDS011;69240;43.530;-5.646;2023-04-28T10:00:53;9.63;;;7.15;;
73760;SDS011;69240;43.530;-5.646;2023-04-28T10:03:21;10.00;;;7.30;;
73760;SDS011;69240;43.530;-5.646;2023-04-28T10:05:48;9.73;;;7.03;;
73760;SDS011;69240;43.530;-5.646;2023-04-28T10:08:16;11.18;;;7.97;;
73760;SDS011;69240;43.530;-5.646;2023-04-28T10:10:43;9.25;;;7.65;;
73760;SDS011;69240;43.530;-5.646;2023-04-28T10:13:13;10.35;;;6.90;;
73760;SDS011;69240;43.530;-5.646;2023-04-28T10:15:42;9.85;;;6.72;;
73760;SDS011;69240;43.530;-5.646;2023-04-28T10:18:08;10.25;;;7.28;;
73760;SDS011;69240;43.530;-5.646;2023-04-28T10:20:34;8.77;;;6.78;;
73760;SDS011;69240;43.530;-5.646;2023-04-28T10:25:44;8.23;;;5.80;;
73760;SDS011;69240;43.530;-5.646;2023-04-28T10:28:13;8.25;;;5.97;;
73760;SDS011;69240;43.530;-5.646;2023-04-28T10:30:40;7.72;;;6.03;;
73760;SDS011;69240;43.530;-5.646;2023-04-28T10:35:44;8.38;;;4.93;;
73760;SDS011;69240;43.530;-5.646;2023-04-28T10:38:16;9.75;;;5.25;;
73760;SDS011;69240;43.530;-5.646;2023-04-28T10:45:58;9.35;;;5.93;;
73760;SDS011;69240;43.530;-5.646;2023-04-28T10:51:36;5.95;;;4.68;;
73760;SDS011;69240;43.530;-5.646;2023-04-28T10:56:08;6.07;;;4.82;;
73760;SDS011;69240;43.530;-5.646;2023-04-28T10:58:39;6.20;;;4.78;;
73760;SDS011;69240;43.530;-5.646;2023-04-28T11:06:35;7.15;;;5.00;;
73760;SDS011;69240;43.530;-5.646;2023-04-28T11:16:47;4.57;;;3.83;;
73760;SDS011;69240;43.530;-5.646;2023-04-28T11:19:18;6.40;;;4.60;;
73760;SDS011;69240;43.530;-5.646;2023-04-28T11:21:45;5.82;;;4.10;;
73760;SDS011;69240;43.530;-5.646;2023-04-28T11:24:12;6.03;;;4.28;;
73760;SDS011;69240;43.530;-5.646;2023-04-28T11:26:39;5.47;;;3.90;;
73760;SDS011;69240;43.530;-5.646;2023-04-28T11:29:05;5.60;;;4.47;;
73760;SDS011;69240;43.530;-5.646;2023-04-28T11:31:31;5.75;;;4.78;;
73760;SDS011;69240;43.530;-5.646;2023-04-28T11:34:06;4.78;;;3.70;;
73760;SDS011;69240;43.530;-5.646;2023-04-28T11:36:39;5.57;;;3.90;;
73760;SDS011;69240;43.530;-5.646;2023-04-28T11:39:09;4.95;;;3.95;;
73760;SDS011;69240;43.530;-5.646;2023-04-28T11:41:36;4.85;;;3.90;;
73760;SDS011;69240;43.530;-5.646;2023-04-28T11:44:16;5.10;;;4.10;;
73760;SDS011;69240;43.530;-5.646;2023-04-28T11:46:53;5.80;;;3.88;;
73760;SDS011;69240;43.530;-5.646;2023-04-28T11:49:20;5.55;;;3.60;;
73760;SDS011;69240;43.530;-5.646;2023-04-28T11:51:54;3.85;;;2.55;;
73760;SDS011;69240;43.530;-5.646;2023-04-28T11:54:27;4.50;;;3.25;;
73760;SDS011;69240;43.530;-5.646;2023-04-28T11:56:53;3.50;;;2.85;;
73760;SDS011;69240;43.530;-5.646;2023-04-28T11:59:27;3.25;;;2.95;;
73760;SDS011;69240;43.530;-5.646;2023-04-28T12:01:59;5.05;;;3.50;;
73760;SDS011;69240;43.530;-5.646;2023-04-28T12:04:30;3.75;;;2.90;;
73760;SDS011;69240;43.530;-5.646;2023-04-28T12:09:37;6.45;;;2.60;;
73760;SDS011;69240;43.530;-5.646;2023-04-28T12:12:07;3.75;;;3.28;;
73760;SDS011;69240;43.530;-5.646;2023-04-28T12:14:55;4.78;;;3.53;;
73760;SDS011;69240;43.530;-5.646;2023-04-28T12:20:00;4.20;;;2.85;;
73760;SDS011;69240;43.530;-5.646;2023-04-28T12:22:27;6.07;;;4.78;;
73760;SDS011;69240;43.530;-5.646;2023-04-28T12:27:28;3.83;;;3.35;;
73760;SDS011;69240;43.530;-5.646;2023-04-28T12:29:55;3.17;;;2.83;;
73760;SDS011;69240;43.530;-5.646;2023-04-28T12:32:38;2.97;;;2.67;;
73760;SDS011;69240;43.530;-5.646;2023-04-28T12:35:05;4.10;;;3.33;;
73760;SDS011;69240;43.530;-5.646;2023-04-28T12:37:31;7.03;;;3.33;;
73760;SDS011;69240;43.530;-5.646;2023-04-28T12:39:57;4.45;;;3.08;;
73760;SDS011;69240;43.530;-5.646;2023-04-28T12:42:23;3.05;;;2.72;;
73760;SDS011;69240;43.530;-5.646;2023-04-28T12:44:48;3.70;;;2.83;;
73760;SDS011;69240;43.530;-5.646;2023-04-28T12:47:14;3.50;;;3.20;;
73760;SDS011;69240;43.530;-5.646;2023-04-28T12:49:42;4.07;;;3.13;;
73760;SDS011;69240;43.530;-5.646;2023-04-28T12:52:08;3.28;;;2.97;;
73760;SDS011;69240;43.530;-5.646;2023-04-28T12:54:34;3.83;;;3.30;;
73760;SDS011;69240;43.530;-5.646;2023-04-28T12:57:00;6.55;;;4.90;;
73760;SDS011;69240;43.530;-5.646;2023-04-28T12:59:27;4.07;;;3.55;;
73760;SDS011;69240;43.530;-5.646;2023-04-28T13:01:53;6.95;;;5.50;;
73760;SDS011;69240;43.530;-5.646;2023-04-28T13:04:19;8.70;;;7.07;;
73760;SDS011;69240;43.530;-5.646;2023-04-28T13:06:45;5.07;;;4.53;;
73760;SDS011;69240;43.530;-5.646;2023-04-28T13:09:14;5.28;;;3.40;;
73760;SDS011;69240;43.530;-5.646;2023-04-28T13:11:40;5.50;;;4.63;;
73760;SDS011;69240;43.530;-5.646;2023-04-28T13:14:07;4.03;;;3.50;;
73760;SDS011;69240;43.530;-5.646;2023-04-28T13:16:33;5.38;;;3.92;;
73760;SDS011;69240;43.530;-5.646;2023-04-28T13:18:59;4.22;;;3.60;;
73760;SDS011;69240;43.530;-5.646;2023-04-28T13:21:25;6.28;;;4.40;;
73760;SDS011;69240;43.530;-5.646;2023-04-28T13:23:53;4.65;;;3.78;;
73760;SDS011;69240;43.530;-5.646;2023-04-28T13:26:21;5.03;;;4.03;;
73760;SDS011;69240;43.530;-5.646;2023-04-28T13:28:48;5.63;;;4.28;;
73760;SDS011;69240;43.530;-5.646;2023-04-28T13:31:15;5.75;;;4.70;;
73760;SDS011;69240;43.530;-5.646;2023-04-28T13:33:40;6.35;;;4.20;;
73760;SDS011;69240;43.530;-5.646;2023-04-28T13:36:06;5.60;;;4.32;;
73760;SDS011;69240;43.530;-5.646;2023-04-28T13:38:33;8.65;;;4.60;;
73760;SDS011;69240;43.530;-5.646;2023-04-28T13:40:58;13.25;;;5.25;;
73760;SDS011;69240;43.530;-5.646;2023-04-28T13:43:25;6.65;;;4.93;;
73760;SDS011;69240;43.530;-5.646;2023-04-28T13:45:51;5.45;;;4.78;;
73760;SDS011;69240;43.530;-5.646;2023-04-28T13:48:17;6.15;;;4.75;;
73760;SDS011;69240;43.530;-5.646;2023-04-28T13:50:43;6.65;;;4.70;;
73760;SDS011;69240;43.530;-5.646;2023-04-28T13:53:08;5.65;;;4.70;;
73760;SDS011;69240;43.530;-5.646;2023-04-28T13:55:35;5.85;;;4.53;;
73760;SDS011;69240;43.530;-5.646;2023-04-28T13:58:01;8.27;;;4.30;;
73760;SDS011;69240;43.530;-5.646;2023-04-28T14:00:30;5.55;;;4.57;;
73760;SDS011;69240;43.530;-5.646;2023-04-28T14:02:57;10.27;;;5.88;;
73760;SDS011;69240;43.530;-5.646;2023-04-28T14:05:23;7.00;;;5.35;;
73760;SDS011;69240;43.530;-5.646;2023-04-28T14:07:49;9.93;;;5.85;;
73760;SDS011;69240;43.530;-5.646;2023-04-28T14:10:14;7.07;;;5.53;;
73760;SDS011;69240;43.530;-5.646;2023-04-28T14:12:40;7.75;;;5.95;;
73760;SDS011;69240;43.530;-5.646;2023-04-28T14:15:06;7.43;;;5.13;;
73760;SDS011;69240;43.530;-5.646;2023-04-28T14:17:32;9.32;;;5.80;;
73760;SDS011;69240;43.530;-5.646;2023-04-28T14:19:59;5.65;;;4.65;;
73760;SDS011;69240;43.530;-5.646;2023-04-28T14:22:25;10.05;;;5.53;;
73760;SDS011;69240;43.530;-5.646;2023-04-28T14:24:51;6.35;;;4.78;;
73760;SDS011;69240;43.530;-5.646;2023-04-28T14:27:17;7.30;;;4.88;;
73760;SDS011;69240;43.530;-5.646;2023-04-28T14:29:43;6.97;;;5.30;;
73760;SDS011;69240;43.530;-5.646;2023-04-28T14:32:12;9.40;;;4.90;;
73760;SDS011;69240;43.530;-5.646;2023-04-28T14:34:45;8.02;;;4.70;;
73760;SDS011;69240;43.530;-5.646;2023-04-28T14:37:12;5.65;;;3.85;;
73760;SDS011;69240;43.530;-5.646;2023-04-28T14:39:38;9.35;;;5.05;;
73760;SDS011;69240;43.530;-5.646;2023-04-28T14:42:04;6.20;;;4.20;;
73760;SDS011;69240;43.530;-5.646;2023-04-28T14:44:30;7.03;;;4.60;;
73760;SDS011;69240;43.530;-5.646;2023-04-28T14:46:55;7.10;;;4.15;;
73760;SDS011;69240;43.530;-5.646;2023-04-28T14:49:21;5.97;;;3.90;;
73760;SDS011;69240;43.530;-5.646;2023-04-28T14:51:47;7.13;;;4.35;;
73760;SDS011;69240;43.530;-5.646;2023-04-28T14:54:13;6.07;;;4.10;;
73760;SDS011;69240;43.530;-5.646;2023-04-28T14:56:39;6.18;;;4.30;;
73760;SDS011;69240;43.530;-5.646;2023-04-28T14:59:05;6.68;;;4.38;;